createdAt,value
2022-09-11T00:00:18.783Z,1.30
2022-09-11T00:02:48.227Z,1.70
2022-09-11T00:05:16.287Z,1.30
2022-09-11T00:07:44.125Z,1.55
2022-09-11T00:10:12.297Z,1.85
2022-09-11T00:12:41.962Z,1.35
2022-09-11T00:15:11.319Z,1.48
2022-09-11T00:17:39.583Z,1.20
2022-09-11T00:20:07.649Z,1.02
2022-09-11T00:22:35.661Z,1.65
2022-09-11T00:25:05.312Z,1.50
2022-09-11T00:27:33.917Z,1.30
2022-09-11T00:30:01.924Z,1.58
2022-09-11T00:32:30.030Z,1.13
2022-09-11T00:34:58.936Z,1.40
2022-09-11T00:37:26.876Z,1.30
2022-09-11T00:39:57.127Z,1.30
2022-09-11T00:42:25.985Z,1.40
2022-09-11T00:45:00.505Z,1.10
2022-09-11T00:47:29.330Z,1.23
2022-09-11T00:49:58.186Z,1.45
2022-09-11T00:52:29.293Z,1.92
2022-09-11T00:55:18.932Z,1.02
2022-09-11T00:58:01.773Z,1.30
2022-09-11T01:00:30.361Z,1.35
2022-09-11T01:02:58.475Z,1.40
2022-09-11T01:05:28.756Z,1.67
2022-09-11T01:07:57.105Z,1.65
2022-09-11T01:10:47.988Z,1.30
2022-09-11T01:13:44.001Z,1.38
2022-09-11T01:16:50.181Z,1.05
2022-09-11T01:19:42.827Z,1.45
2022-09-11T01:22:41.161Z,1.13
2022-09-11T01:25:20.851Z,1.45
2022-09-11T01:27:52.405Z,0.95
2022-09-11T01:30:25.437Z,1.20
2022-09-11T01:33:08.104Z,1.30
2022-09-11T01:35:40.727Z,1.27
2022-09-11T01:38:33.058Z,1.30
2022-09-11T01:41:10.192Z,1.15
2022-09-11T01:43:46.234Z,1.30
2022-09-11T01:46:14.950Z,1.02
2022-09-11T01:48:46.479Z,1.10
2022-09-11T01:51:25.305Z,1.15
2022-09-11T01:53:53.156Z,1.40
2022-09-11T01:56:22.916Z,1.35
2022-09-11T01:58:56.602Z,1.40
2022-09-11T02:01:27.867Z,1.25
2022-09-11T02:04:12.715Z,1.20
2022-09-11T02:07:06.751Z,1.25
2022-09-11T02:09:40.602Z,1.20
2022-09-11T02:12:11.701Z,1.30
2022-09-11T02:14:43.272Z,1.17
2022-09-11T02:17:24.711Z,1.27
2022-09-11T02:19:56.062Z,1.33
2022-09-11T02:22:24.945Z,1.20
2022-09-11T02:24:54.176Z,1.08
2022-09-11T02:27:27.696Z,1.60
2022-09-11T02:29:57.328Z,1.35
2022-09-11T02:32:26.967Z,1.40
2022-09-11T02:34:56.008Z,1.23
2022-09-11T02:37:24.830Z,1.30
2022-09-11T02:40:00.930Z,1.50
2022-09-11T02:42:37.021Z,1.60
2022-09-11T02:45:38.816Z,1.13
2022-09-11T02:48:22.805Z,1.20
2022-09-11T02:51:06.675Z,1.13
2022-09-11T02:54:02.105Z,1.30
2022-09-11T02:56:40.464Z,1.10
2022-09-11T02:59:49.037Z,1.30
2022-09-11T03:02:17.230Z,1.65
2022-09-11T03:04:45.725Z,1.10
2022-09-11T03:07:14.092Z,1.10
2022-09-11T03:09:42.156Z,1.10
2022-09-11T03:12:16.585Z,1.08
2022-09-11T03:14:49.737Z,1.42
2022-09-11T03:17:17.670Z,1.15
2022-09-11T03:19:46.401Z,1.00
2022-09-11T03:22:14.989Z,0.98
2022-09-11T03:24:44.489Z,1.00
2022-09-11T03:27:13.700Z,2.13
2022-09-11T03:29:42.367Z,1.00
2022-09-11T03:32:11.367Z,1.08
2022-09-11T03:34:39.179Z,0.93
2022-09-11T03:37:08.461Z,1.10
2022-09-11T03:39:36.431Z,1.20
2022-09-11T03:42:04.581Z,1.38
2022-09-11T03:44:32.978Z,1.02
2022-09-11T03:47:00.712Z,1.50
2022-09-11T03:49:28.542Z,1.10
2022-09-11T03:51:57.197Z,1.10
2022-09-11T03:54:32.320Z,1.30
2022-09-11T03:57:05.878Z,1.15
2022-09-11T03:59:33.995Z,1.13
2022-09-11T04:02:02.288Z,1.20
2022-09-11T04:04:30.567Z,1.17
2022-09-11T04:06:58.919Z,1.10
2022-09-11T04:09:28.667Z,1.20
2022-09-11T04:11:57.186Z,0.95
2022-09-11T04:14:34.525Z,0.95
2022-09-11T04:17:05.501Z,1.10
2022-09-11T04:19:37.587Z,1.50
2022-09-11T04:22:07.487Z,1.10
2022-09-11T04:24:40.274Z,1.30
2022-09-11T04:27:08.168Z,1.20
2022-09-11T04:29:36.474Z,1.20
2022-09-11T04:32:05.177Z,1.80
2022-09-11T04:34:42.566Z,2.10
2022-09-11T04:37:11.666Z,4.20
2022-09-11T04:39:40.565Z,3.33
2022-09-11T04:42:10.705Z,4.50
2022-09-11T04:44:40.364Z,4.07
2022-09-11T04:47:08.326Z,4.53
2022-09-11T04:49:36.246Z,4.72
2022-09-11T04:52:06.239Z,5.25
2022-09-11T04:54:35.615Z,4.50
2022-09-11T04:57:06.150Z,4.18
2022-09-11T04:59:36.051Z,4.75
2022-09-11T05:02:09.964Z,4.35
2022-09-11T05:04:42.546Z,4.35
2022-09-11T05:07:16.111Z,3.75
2022-09-11T05:09:48.265Z,3.05
2022-09-11T05:12:18.829Z,2.55
2022-09-11T05:14:47.778Z,2.70
2022-09-11T05:17:16.347Z,2.60
2022-09-11T05:19:45.389Z,1.67
2022-09-11T05:22:16.065Z,1.88
2022-09-11T05:24:49.377Z,1.50
2022-09-11T05:27:18.946Z,1.80
2022-09-11T05:29:47.019Z,2.65
2022-09-11T05:32:17.914Z,2.88
2022-09-11T05:34:45.954Z,2.38
2022-09-11T05:37:17.228Z,2.42
2022-09-11T05:39:47.189Z,3.35
2022-09-11T05:42:16.852Z,2.25
2022-09-11T05:44:58.446Z,2.05
2022-09-11T05:47:27.960Z,2.05
2022-09-11T05:49:57.529Z,1.90
2022-09-11T05:52:28.611Z,2.08
2022-09-11T05:54:57.043Z,2.17
2022-09-11T05:57:26.512Z,3.00
2022-09-11T05:59:57.156Z,3.10
2022-09-11T06:02:38.591Z,2.45
2022-09-11T06:05:09.258Z,6.38
2022-09-11T06:07:38.249Z,8.07
2022-09-11T06:10:08.408Z,6.43
2022-09-11T06:12:37.524Z,5.13
2022-09-11T06:15:07.368Z,6.13
2022-09-11T06:17:36.412Z,3.40
2022-09-11T06:20:04.515Z,3.38
2022-09-11T06:22:33.806Z,3.17
2022-09-11T06:25:03.732Z,2.85
2022-09-11T06:27:32.531Z,2.85
2022-09-11T06:30:00.508Z,2.78
2022-09-11T06:32:33.540Z,3.20
2022-09-11T06:35:04.243Z,4.00
2022-09-11T06:37:33.289Z,4.30
2022-09-11T06:40:02.158Z,5.68
2022-09-11T06:42:34.415Z,5.70
2022-09-11T06:45:03.042Z,5.88
2022-09-11T06:47:32.456Z,4.85
2022-09-11T06:50:00.584Z,5.18
2022-09-11T06:52:35.783Z,6.63
2022-09-11T06:55:17.822Z,6.20
2022-09-11T06:57:53.927Z,4.93
2022-09-11T07:00:26.552Z,4.90
2022-09-11T07:02:56.555Z,4.20
2022-09-11T07:05:30.470Z,3.55
2022-09-11T07:08:03.306Z,4.03
2022-09-11T07:10:41.793Z,4.03
2022-09-11T07:13:13.580Z,4.03
2022-09-11T07:15:42.749Z,4.28
2022-09-11T07:18:36.108Z,3.85
2022-09-11T07:21:17.166Z,3.92
2022-09-11T07:23:51.302Z,4.30
2022-09-11T07:26:19.689Z,4.03
2022-09-11T07:28:50.378Z,3.35
2022-09-11T07:31:21.216Z,2.95
2022-09-11T07:33:50.919Z,3.17
2022-09-11T07:36:24.005Z,3.28
2022-09-11T07:39:01.606Z,3.53
2022-09-11T07:41:37.008Z,3.85
2022-09-11T07:44:11.754Z,4.32
2022-09-11T07:46:59.766Z,4.28
2022-09-11T07:49:28.301Z,4.15
2022-09-11T07:52:27.966Z,3.30
2022-09-11T07:55:10.432Z,3.70
2022-09-11T07:57:39.015Z,3.08
2022-09-11T08:00:15.259Z,3.00
2022-09-11T08:03:25.123Z,4.32
2022-09-11T08:06:02.465Z,3.50
2022-09-11T08:08:32.712Z,3.90
2022-09-11T08:11:06.774Z,3.80
2022-09-11T08:13:38.248Z,4.93
2022-09-11T08:16:06.833Z,4.78
2022-09-11T08:18:37.297Z,4.93
2022-09-11T08:21:12.751Z,4.00
2022-09-11T08:23:42.429Z,4.57
2022-09-11T08:26:22.429Z,3.90
2022-09-11T08:28:53.725Z,3.63
2022-09-11T08:31:27.891Z,4.78
2022-09-11T08:33:59.551Z,5.22
2022-09-11T08:36:29.817Z,4.90
2022-09-11T08:39:00.402Z,4.07
2022-09-11T08:41:46.397Z,3.53
2022-09-11T08:44:28.494Z,3.80
2022-09-11T08:47:19.556Z,3.63
2022-09-11T08:50:16.136Z,4.50
2022-09-11T08:52:45.511Z,4.35
2022-09-11T08:55:17.484Z,5.00
2022-09-11T08:57:49.538Z,4.57
2022-09-11T09:00:21.919Z,5.15
2022-09-11T09:03:30.319Z,5.53
2022-09-11T09:06:10.410Z,5.97
2022-09-11T09:08:59.702Z,4.38
2022-09-11T09:14:36.889Z,4.22
2022-09-11T09:17:35.000Z,4.00
2022-09-11T09:20:11.289Z,4.88
2022-09-11T09:22:53.938Z,3.92
2022-09-11T09:25:23.725Z,4.25
2022-09-11T09:28:04.028Z,3.85
2022-09-11T09:30:59.481Z,4.20
2022-09-11T09:33:30.956Z,3.28
2022-09-11T09:36:27.371Z,3.05
2022-09-11T09:38:56.020Z,4.07
2022-09-11T09:41:41.771Z,3.30
2022-09-11T09:44:28.479Z,3.08
2022-09-11T09:49:33.180Z,3.25
2022-09-11T09:52:09.169Z,3.15
2022-09-11T09:54:38.869Z,2.75
2022-09-11T09:57:10.532Z,2.83
2022-09-11T09:59:47.037Z,2.63
2022-09-11T10:02:40.455Z,3.03
2022-09-11T10:05:20.003Z,3.33
2022-09-11T10:08:03.161Z,3.15
2022-09-11T10:10:37.184Z,2.95
2022-09-11T10:13:21.011Z,2.88
2022-09-11T10:15:49.439Z,3.53
2022-09-11T10:18:33.602Z,3.28
2022-09-11T10:21:19.095Z,3.80
2022-09-11T10:23:57.718Z,3.90
2022-09-11T10:26:43.806Z,3.90
2022-09-11T10:29:15.726Z,4.45
2022-09-11T10:31:49.935Z,4.35
2022-09-11T10:34:20.634Z,4.75
2022-09-11T10:37:14.026Z,3.90
2022-09-11T10:39:44.807Z,4.05
2022-09-11T10:42:23.161Z,3.83
2022-09-11T10:44:51.705Z,3.78
2022-09-11T10:47:29.952Z,3.95
2022-09-11T10:50:20.293Z,3.83
2022-09-11T10:52:55.545Z,4.35
2022-09-11T10:57:56.397Z,4.35
2022-09-11T11:00:28.581Z,5.72
2022-09-11T11:02:57.531Z,6.60
2022-09-11T11:05:44.486Z,6.65
2022-09-11T11:08:51.446Z,6.47
2022-09-11T11:11:38.222Z,6.13
2022-09-11T11:14:46.088Z,4.38
2022-09-11T11:17:26.046Z,5.15
2022-09-11T11:20:38.001Z,3.63
2022-09-11T11:23:32.223Z,3.42
2022-09-11T11:26:08.892Z,3.05
2022-09-11T11:28:49.821Z,3.05
2022-09-11T11:31:43.778Z,3.13
2022-09-11T11:34:42.048Z,3.45
2022-09-11T11:37:46.742Z,3.22
2022-09-11T11:40:26.179Z,3.47
2022-09-11T11:42:56.372Z,2.65
2022-09-11T11:45:33.149Z,2.67
2022-09-11T11:48:05.440Z,3.10
2022-09-11T11:50:45.542Z,3.13
2022-09-11T11:53:37.139Z,3.78
2022-09-11T11:56:04.939Z,3.10
2022-09-11T11:58:42.269Z,3.20
2022-09-11T12:01:29.065Z,3.50
2022-09-11T12:04:19.940Z,4.20
2022-09-11T12:06:48.076Z,3.88
2022-09-11T12:09:17.358Z,4.78
2022-09-11T12:11:51.228Z,5.28
2022-09-11T12:14:27.737Z,5.68
2022-09-11T12:16:56.481Z,6.57
2022-09-11T12:19:25.795Z,6.72
2022-09-11T12:21:54.974Z,6.97
2022-09-11T12:24:26.828Z,7.63
2022-09-11T12:27:34.949Z,7.15
2022-09-11T12:30:20.492Z,6.47
2022-09-11T12:33:00.340Z,6.67
2022-09-11T12:35:46.918Z,6.20
2022-09-11T12:38:24.809Z,6.95
2022-09-11T12:40:57.678Z,8.48
2022-09-11T12:43:31.323Z,7.13
2022-09-11T12:46:06.433Z,7.60
2022-09-11T12:48:52.678Z,8.27
2022-09-11T12:51:45.955Z,8.07
2022-09-11T12:54:37.983Z,7.55
2022-09-11T12:57:15.327Z,5.60
2022-09-11T12:59:44.381Z,5.78
2022-09-11T13:02:25.193Z,4.78
2022-09-11T13:05:01.380Z,4.65
2022-09-11T13:07:38.564Z,5.55
2022-09-11T13:10:22.090Z,4.95
2022-09-11T13:12:55.431Z,6.95
2022-09-11T13:15:37.071Z,7.00
2022-09-11T13:18:36.258Z,8.23
2022-09-11T13:21:12.161Z,8.35
2022-09-11T13:26:12.379Z,6.65
2022-09-11T13:28:45.460Z,5.97
2022-09-11T13:32:01.029Z,6.07
2022-09-11T13:34:37.027Z,8.70
2022-09-11T13:37:19.809Z,6.13
2022-09-11T13:39:47.880Z,6.35
2022-09-11T13:42:16.933Z,6.57
2022-09-11T13:44:52.309Z,6.38
2022-09-11T13:47:31.677Z,5.85
2022-09-11T13:50:04.499Z,5.20
2022-09-11T13:53:12.515Z,4.90
2022-09-11T13:55:40.816Z,4.68
2022-09-11T13:58:32.839Z,4.07
2022-09-11T14:01:17.077Z,3.83
2022-09-11T14:03:46.430Z,3.53
2022-09-11T14:06:19.163Z,3.70
2022-09-11T14:08:50.791Z,3.35
2022-09-11T14:11:24.790Z,5.05
2022-09-11T14:14:11.913Z,4.93
2022-09-11T14:16:53.229Z,5.25
2022-09-11T14:19:27.259Z,5.63
2022-09-11T14:21:55.173Z,6.13
2022-09-11T14:24:36.336Z,6.28
2022-09-11T14:27:33.023Z,6.65
2022-09-11T14:30:01.951Z,5.72
2022-09-11T14:32:33.932Z,6.60
2022-09-11T14:35:11.410Z,5.35
2022-09-11T14:37:45.928Z,5.07
2022-09-11T14:40:15.979Z,5.18
2022-09-11T14:42:44.018Z,5.13
2022-09-11T14:45:19.494Z,4.63
2022-09-11T14:47:47.640Z,4.80
2022-09-11T14:50:16.408Z,5.05
2022-09-11T14:52:44.637Z,4.57
2022-09-11T14:55:17.611Z,4.95
2022-09-11T14:57:51.927Z,4.90
2022-09-11T15:00:20.102Z,5.47
2022-09-11T15:02:48.995Z,7.45
2022-09-11T15:05:19.290Z,6.90
2022-09-11T15:07:53.088Z,7.38
2022-09-11T15:10:23.387Z,6.55
2022-09-11T15:13:04.557Z,7.38
2022-09-11T15:16:09.643Z,8.10
2022-09-11T15:18:49.428Z,8.13
2022-09-11T15:21:25.197Z,8.02
2022-09-11T15:23:54.313Z,8.63
2022-09-11T15:26:30.117Z,7.90
2022-09-11T15:31:28.939Z,7.63
2022-09-11T15:33:57.446Z,7.28
2022-09-11T15:36:26.563Z,7.60
2022-09-11T15:38:54.820Z,7.82
2022-09-11T15:41:30.763Z,7.63
2022-09-11T15:46:33.071Z,8.73
2022-09-11T15:49:02.030Z,7.95
2022-09-11T15:51:30.205Z,8.43
2022-09-11T15:54:00.549Z,8.20
2022-09-11T15:56:29.779Z,7.18
2022-09-11T15:58:58.334Z,7.63
2022-09-11T16:01:32.262Z,7.75
2022-09-11T16:04:11.019Z,7.25
2022-09-11T16:06:46.337Z,10.98
2022-09-11T16:09:21.158Z,8.02
2022-09-11T16:11:50.687Z,5.95
2022-09-11T16:14:22.290Z,5.70
2022-09-11T16:16:51.228Z,4.57
2022-09-11T16:19:21.279Z,7.28
2022-09-11T16:21:49.398Z,6.88
2022-09-11T16:24:27.431Z,7.80
2022-09-11T16:27:00.025Z,9.23
2022-09-11T16:29:58.982Z,11.60
2022-09-11T16:32:29.749Z,14.57
2022-09-11T16:34:59.618Z,12.60
2022-09-11T16:37:28.658Z,11.68
2022-09-11T16:39:56.705Z,12.00
2022-09-11T16:42:26.549Z,12.52
2022-09-11T16:44:54.496Z,10.32
2022-09-11T16:47:22.587Z,11.57
2022-09-11T16:50:09.141Z,10.25
2022-09-11T16:52:40.255Z,10.38
2022-09-11T16:55:09.997Z,31.00
2022-09-11T16:57:40.786Z,11.05
2022-09-11T17:00:10.716Z,12.90
2022-09-11T17:02:38.967Z,12.77
2022-09-11T17:05:10.786Z,9.93
2022-09-11T17:07:46.153Z,10.10
2022-09-11T17:10:17.166Z,10.38
2022-09-11T17:12:45.923Z,11.30
2022-09-11T17:15:13.755Z,10.43
2022-09-11T17:17:43.508Z,10.70
2022-09-11T17:20:12.763Z,10.27
2022-09-11T17:22:44.082Z,10.32
2022-09-11T17:25:15.434Z,12.52
2022-09-11T17:27:46.399Z,17.73
2022-09-11T17:30:37.183Z,15.52
2022-09-11T17:33:05.480Z,16.15
2022-09-11T17:35:37.765Z,15.40
2022-09-11T17:38:09.511Z,19.83
2022-09-11T17:40:44.303Z,18.95
2022-09-11T17:43:16.145Z,14.40
2022-09-11T17:45:45.757Z,15.48
2022-09-11T17:48:17.671Z,16.42
2022-09-11T17:50:47.553Z,11.52
2022-09-11T17:53:17.184Z,13.13
2022-09-11T17:55:46.410Z,16.15
2022-09-11T17:58:15.360Z,17.10
2022-09-11T18:00:53.307Z,21.38
2022-09-11T18:03:22.889Z,15.55
2022-09-11T18:05:51.438Z,13.38
2022-09-11T18:08:19.687Z,8.95
2022-09-11T18:10:59.855Z,9.10
2022-09-11T18:13:32.455Z,8.77
2022-09-11T18:16:01.397Z,9.18
2022-09-11T18:18:32.426Z,8.18
2022-09-11T18:21:06.258Z,8.88
2022-09-11T18:23:40.069Z,9.18
2022-09-11T18:26:20.079Z,9.02
2022-09-11T18:28:55.120Z,10.27
2022-09-11T18:31:24.425Z,10.52
2022-09-11T18:33:54.975Z,9.57
2022-09-11T18:36:23.737Z,10.32
2022-09-11T18:38:52.662Z,15.40
2022-09-11T18:41:22.820Z,11.38
2022-09-11T18:43:54.119Z,12.13
2022-09-11T18:46:28.672Z,16.75
2022-09-11T18:48:59.972Z,10.27
2022-09-11T18:51:28.933Z,12.75
2022-09-11T18:53:59.504Z,10.35
2022-09-11T18:56:28.608Z,8.57
2022-09-11T18:58:57.658Z,7.78
2022-09-11T19:01:29.737Z,10.60
2022-09-11T19:04:00.094Z,16.58
2022-09-11T19:06:29.426Z,11.40
2022-09-11T19:10:01.987Z,14.77
2022-09-11T19:12:30.276Z,14.50
2022-09-11T19:15:07.226Z,13.15
2022-09-11T19:17:36.862Z,13.25
2022-09-11T19:20:11.317Z,12.57
2022-09-11T19:22:39.211Z,11.15
2022-09-11T19:25:10.691Z,10.13
2022-09-11T19:27:39.309Z,10.80
2022-09-11T19:33:08.648Z,10.05
2022-09-11T19:35:36.631Z,10.18
2022-09-11T19:38:08.236Z,10.20
2022-09-11T19:40:36.185Z,10.73
2022-09-11T19:43:05.253Z,9.77
2022-09-11T19:45:34.038Z,9.40
2022-09-11T19:48:03.234Z,9.27
2022-09-11T19:50:35.842Z,8.88
2022-09-11T19:53:07.489Z,9.52
2022-09-11T19:55:42.325Z,9.65
2022-09-11T19:58:10.379Z,11.13
2022-09-11T20:00:38.633Z,10.10
2022-09-11T20:03:08.367Z,9.73
2022-09-11T20:05:40.862Z,9.65
2022-09-11T20:08:16.394Z,8.57
2022-09-11T20:13:19.278Z,8.63
2022-09-11T20:15:47.458Z,6.85
2022-09-11T20:18:15.498Z,7.40
2022-09-11T20:20:45.568Z,8.40
2022-09-11T20:23:15.613Z,9.25
2022-09-11T20:25:43.732Z,8.07
2022-09-11T20:28:13.785Z,8.20
2022-09-11T20:30:45.372Z,8.65
2022-09-11T20:33:24.747Z,7.35
2022-09-11T20:35:55.088Z,7.93
2022-09-11T20:38:23.502Z,8.38
2022-09-11T20:40:51.596Z,7.97
2022-09-11T20:43:20.911Z,7.60
2022-09-11T20:45:54.792Z,9.57
2022-09-11T20:48:29.856Z,10.50
2022-09-11T20:52:11.040Z,10.70
2022-09-11T20:54:39.109Z,9.07
2022-09-11T20:57:15.393Z,11.52
2022-09-11T21:00:00.471Z,10.40
2022-09-11T21:02:30.204Z,10.25
2022-09-11T21:05:00.618Z,11.35
2022-09-11T21:07:28.884Z,11.07
2022-09-11T21:09:56.738Z,12.23
2022-09-11T21:12:25.272Z,11.30
2022-09-11T21:14:56.644Z,11.30
2022-09-11T21:17:24.584Z,10.70
2022-09-11T21:19:57.284Z,10.85
2022-09-11T21:22:36.345Z,9.73
2022-09-11T21:25:09.651Z,9.63
2022-09-11T21:27:37.844Z,8.35
2022-09-11T21:30:06.315Z,8.18
2022-09-11T21:32:34.901Z,7.88
2022-09-11T21:35:03.257Z,8.18
2022-09-11T21:37:32.265Z,8.38
2022-09-11T21:40:00.326Z,8.07
2022-09-11T21:42:31.355Z,8.40
2022-09-11T21:45:00.470Z,8.25
2022-09-11T21:47:28.482Z,8.40
2022-09-11T21:49:57.622Z,8.43
2022-09-11T21:52:26.539Z,8.13
2022-09-11T21:54:54.957Z,8.60
2022-09-11T21:57:23.092Z,8.10
2022-09-11T21:59:51.437Z,8.10
2022-09-11T22:02:19.430Z,9.32
2022-09-11T22:04:47.584Z,8.23
2022-09-11T22:07:17.738Z,9.18
2022-09-11T22:09:48.549Z,8.35
2022-09-11T22:12:16.674Z,9.05
2022-09-11T22:14:46.938Z,9.73
2022-09-11T22:17:16.999Z,8.70
2022-09-11T22:19:49.614Z,9.43
2022-09-11T22:22:18.733Z,8.48
2022-09-11T22:24:49.277Z,8.52
2022-09-11T22:27:18.790Z,8.43
2022-09-11T22:29:48.543Z,8.43
2022-09-11T22:32:17.607Z,7.50
2022-09-11T22:34:47.168Z,9.25
2022-09-11T22:37:17.925Z,8.25
2022-09-11T22:39:46.146Z,8.98
2022-09-11T22:42:14.890Z,10.13
2022-09-11T22:44:50.644Z,8.15
2022-09-11T22:47:18.725Z,8.82
2022-09-11T22:50:24.129Z,8.82
2022-09-11T22:52:53.752Z,8.82
2022-09-11T22:55:21.797Z,8.30
2022-09-11T22:57:50.794Z,8.98
2022-09-11T23:00:19.377Z,8.60
2022-09-11T23:02:48.516Z,9.50
2022-09-11T23:05:43.385Z,11.48
2022-09-11T23:08:12.682Z,8.90
2022-09-11T23:10:44.019Z,8.60
2022-09-11T23:13:14.607Z,7.65
2022-09-11T23:15:56.441Z,8.20
2022-09-11T23:18:28.213Z,7.38
2022-09-11T23:20:57.448Z,8.15
2022-09-11T23:23:26.446Z,8.20
2022-09-11T23:25:54.404Z,8.38
2022-09-11T23:28:22.771Z,6.75
2022-09-11T23:30:51.120Z,7.25
2022-09-11T23:33:20.518Z,8.10
2022-09-11T23:35:48.774Z,8.07
2022-09-11T23:38:16.926Z,6.82
2022-09-11T23:40:44.918Z,7.13
2022-09-11T23:43:12.953Z,8.05
2022-09-11T23:45:42.191Z,7.70
2022-09-11T23:48:11.884Z,7.53
2022-09-11T23:50:42.095Z,7.80
2022-09-11T23:53:11.812Z,7.55
2022-09-11T23:55:42.395Z,7.70
2022-09-11T23:58:10.764Z,7.75
